Time;durP1;ratioP1;P1;durP2;ratioP2;P2;SDS_P1;SDS_P2;PMS_P1;PMS_P2;Temp;Humidity;BMP_temperature;BMP_pressure;BME280_temperature;BME280_humidity;BME280_pressure;Samples;Min_cycle;Max_cycle;Signal;HPM_P1;HPM_P2
2023/09/15 00:01:34;;;;;;;3.38;3.08;;;15.20;77.60;;;;;;5036163;28;20021;-74
2023/09/15 00:04:02;;;;;;;3.88;2.95;;;15.20;77.80;;;;;;5035981;28;20032;-74
2023/09/15 00:06:28;;;;;;;5.25;2.65;;;15.20;78.00;;;;;;5035322;28;20033;-76
2023/09/15 00:08:54;;;;;;;4.20;2.72;;;15.20;78.00;;;;;;5035863;28;20025;-75
2023/09/15 00:11:19;;;;;;;5.32;2.80;;;15.20;78.00;;;;;;5035564;28;20153;-75
2023/09/15 00:13:45;;;;;;;3.67;2.97;;;15.10;77.90;;;;;;5035681;28;20037;-76
2023/09/15 00:16:12;;;;;;;5.22;2.83;;;15.20;77.90;;;;;;5035717;28;20017;-76
2023/09/15 00:18:37;;;;;;;3.13;2.80;;;15.20;77.90;;;;;;5035658;28;20388;-75
2023/09/15 00:21:05;;;;;;;4.43;3.08;;;15.20;77.70;;;;;;5035164;28;20017;-75
2023/09/15 00:23:31;;;;;;;5.07;2.80;;;15.20;77.40;;;;;;5035710;28;20017;-74
2023/09/15 00:25:59;;;;;;;6.30;3.35;;;15.20;77.60;;;;;;5035617;28;20033;-74
2023/09/15 00:28:25;;;;;;;3.17;2.88;;;15.10;77.70;;;;;;5035730;28;20043;-75
2023/09/15 00:30:51;;;;;;;3.17;2.88;;;15.10;77.60;;;;;;5034932;28;20464;-75
2023/09/15 00:33:17;;;;;;;3.80;3.00;;;15.00;77.50;;;;;;5035318;28;20414;-76
2023/09/15 00:35:42;;;;;;;6.18;3.05;;;15.10;77.70;;;;;;5018143;28;20029;-75
2023/09/15 00:38:09;;;;;;;3.78;2.80;;;15.00;77.60;;;;;;5051858;28;20025;-75
2023/09/15 00:40:35;;;;;;;4.13;3.05;;;15.00;77.70;;;;;;5053176;28;20021;-76
2023/09/15 00:43:00;;;;;;;4.45;3.05;;;15.00;77.70;;;;;;5051921;28;20051;-76
2023/09/15 00:45:26;;;;;;;7.43;2.92;;;15.00;77.80;;;;;;5051883;28;20534;-77
2023/09/15 00:47:57;;;;;;;3.72;2.50;;;15.00;77.90;;;;;;5051683;28;20021;-78
2023/09/15 00:50:26;;;;;;;6.32;2.60;;;15.00;78.00;;;;;;5035314;28;20021;-77
2023/09/15 00:53:19;;;;;;;5.32;3.10;;;15.00;77.80;;;;;;5018636;28;20128;-76
2023/09/15 00:55:46;;;;;;;5.32;2.70;;;15.00;77.40;;;;;;5035324;28;20021;-78
2023/09/15 00:58:15;;;;;;;3.45;2.95;;;15.00;77.30;;;;;;5035040;28;20032;-78
2023/09/15 01:00:42;;;;;;;4.40;3.60;;;15.00;77.40;;;;;;5034882;28;20036;-78
2023/09/15 01:03:09;;;;;;;3.45;2.80;;;14.90;77.50;;;;;;5034928;28;20029;-76
2023/09/15 01:05:35;;;;;;;5.18;3.58;;;14.90;77.70;;;;;;5035100;28;20052;-75
2023/09/15 01:08:02;;;;;;;6.07;3.08;;;14.90;77.60;;;;;;5035073;28;20043;-75
2023/09/15 01:10:28;;;;;;;2.90;2.60;;;14.80;77.50;;;;;;5034715;28;20029;-76
2023/09/15 01:12:55;;;;;;;3.95;3.20;;;14.80;77.70;;;;;;5051439;28;20513;-76
2023/09/15 01:15:39;;;;;;;5.18;3.20;;;14.70;77.90;;;;;;5035104;28;20017;-75
2023/09/15 01:18:22;;;;;;;3.72;3.15;;;14.70;78.00;;;;;;5034864;28;20071;-76
2023/09/15 01:21:08;;;;;;;4.15;2.92;;;14.60;78.10;;;;;;5034881;28;20463;-75
2023/09/15 01:24:11;;;;;;;3.65;2.70;;;14.60;78.10;;;;;;5050887;28;20033;-76
2023/09/15 01:26:57;;;;;;;3.33;2.75;;;14.60;78.40;;;;;;5034632;28;20418;-74
2023/09/15 01:29:58;;;;;;;4.60;2.70;;;14.60;78.40;;;;;;5034895;28;20072;-75
2023/09/15 01:32:25;;;;;;;3.25;2.95;;;14.60;78.50;;;;;;5050143;28;20045;-75
2023/09/15 01:34:52;;;;;;;2.60;2.40;;;14.50;78.30;;;;;;5051302;28;20033;-75
2023/09/15 01:37:23;;;;;;;4.65;2.70;;;14.50;78.50;;;;;;5017587;28;20095;-76
2023/09/15 01:39:50;;;;;;;3.42;2.65;;;14.40;78.60;;;;;;5051374;28;20025;-76
2023/09/15 01:42:15;;;;;;;7.35;3.25;;;14.40;78.80;;;;;;5051273;28;20029;-75
2023/09/15 01:44:41;;;;;;;3.97;3.50;;;14.40;78.90;;;;;;5052380;28;20024;-76
2023/09/15 01:47:08;;;;;;;3.78;2.72;;;14.40;79.10;;;;;;5052047;28;20501;-75
2023/09/15 01:49:34;;;;;;;2.90;2.63;;;14.40;79.00;;;;;;5056564;28;20064;-76
2023/09/15 01:52:01;;;;;;;3.83;3.40;;;14.40;79.00;;;;;;5038493;28;20157;-76
2023/09/15 01:54:27;;;;;;;3.55;2.58;;;14.40;79.00;;;;;;5038451;28;20033;-74
2023/09/15 01:56:52;;;;;;;3.38;3.00;;;14.40;78.90;;;;;;5055082;28;20017;-76
2023/09/15 01:59:18;;;;;;;3.90;2.80;;;14.30;78.50;;;;;;5054662;28;20158;-76
2023/09/15 02:01:46;;;;;;;3.60;2.88;;;14.30;78.60;;;;;;5054966;28;20067;-77
2023/09/15 02:04:12;;;;;;;8.43;2.90;;;14.30;78.70;;;;;;5054658;28;20024;-77
2023/09/15 02:06:37;;;;;;;3.05;2.70;;;14.30;78.90;;;;;;5054933;28;20017;-76
2023/09/15 02:09:04;;;;;;;5.35;2.80;;;14.30;78.80;;;;;;5054784;28;20025;-74
2023/09/15 02:11:30;;;;;;;4.00;3.00;;;14.30;78.90;;;;;;5054606;28;20021;-76
2023/09/15 02:13:56;;;;;;;5.18;2.80;;;14.30;78.80;;;;;;5054717;28;20387;-78
2023/09/15 02:16:21;;;;;;;7.10;3.38;;;14.30;78.70;;;;;;5054398;28;20029;-77
2023/09/15 02:18:47;;;;;;;4.13;3.20;;;14.20;78.70;;;;;;5054462;28;20108;-77
2023/09/15 02:21:13;;;;;;;3.72;3.10;;;14.20;78.70;;;;;;5054709;28;20028;-76
2023/09/15 02:23:38;;;;;;;4.05;2.85;;;14.20;78.90;;;;;;5054638;28;20063;-77
2023/09/15 02:26:05;;;;;;;5.95;3.20;;;14.20;78.80;;;;;;5021504;28;20025;-76
2023/09/15 02:28:31;;;;;;;3.97;3.10;;;14.10;79.00;;;;;;5037841;28;20025;-77
2023/09/15 02:30:58;;;;;;;2.97;2.67;;;14.10;79.20;;;;;;5037696;28;20064;-79
2023/09/15 02:33:24;;;;;;;6.82;3.28;;;14.10;79.30;;;;;;5037630;28;20039;-79
2023/09/15 02:35:51;;;;;;;5.25;3.05;;;14.10;79.40;;;;;;5053716;28;20025;-79
2023/09/15 02:38:16;;;;;;;3.63;3.03;;;14.00;79.30;;;;;;5053806;28;20037;-77
2023/09/15 02:40:42;;;;;;;4.70;2.85;;;14.10;79.40;;;;;;5054088;28;20371;-78
2023/09/15 02:43:11;;;;;;;6.95;3.33;;;14.10;80.30;;;;;;5053616;28;20108;-78
2023/09/15 02:45:37;;;;;;;4.20;3.10;;;14.10;79.40;;;;;;5054100;28;20025;-78
2023/09/15 02:48:03;;;;;;;4.97;3.33;;;14.10;79.40;;;;;;5037389;28;20043;-78
2023/09/15 02:50:29;;;;;;;4.90;2.97;;;14.00;79.40;;;;;;5037544;28;20064;-78
2023/09/15 02:52:55;;;;;;;6.40;4.00;;;13.90;79.70;;;;;;5020951;28;20055;-76
2023/09/15 02:55:21;;;;;;;3.35;2.92;;;13.90;79.80;;;;;;5054000;28;20032;-76
2023/09/15 02:57:51;;;;;;;3.13;2.67;;;13.80;79.90;;;;;;5053440;28;20041;-78
2023/09/15 03:00:19;;;;;;;8.23;3.53;;;13.80;80.10;;;;;;5037621;28;20028;-77
2023/09/15 03:02:45;;;;;;;3.67;3.38;;;13.90;80.30;;;;;;5053964;28;20498;-76
2023/09/15 03:05:10;;;;;;;3.83;3.20;;;13.90;80.30;;;;;;5037278;28;20025;-77
2023/09/15 03:07:39;;;;;;;5.20;3.25;;;13.90;80.20;;;;;;5053652;28;20040;-76
2023/09/15 03:10:06;;;;;;;3.40;3.10;;;13.90;80.00;;;;;;5053782;28;20025;-76
2023/09/15 03:12:32;;;;;;;6.30;3.42;;;14.00;79.80;;;;;;5036945;28;20131;-76
2023/09/15 03:14:58;;;;;;;3.60;3.13;;;14.00;79.50;;;;;;5036440;28;20132;-76
2023/09/15 03:17:24;;;;;;;4.57;3.30;;;14.00;79.20;;;;;;5053542;28;20514;-76
2023/09/15 03:19:49;;;;;;;3.78;3.13;;;14.00;79.20;;;;;;5053338;28;20025;-76
2023/09/15 03:22:15;;;;;;;4.53;3.30;;;13.90;79.20;;;;;;5053354;28;20024;-76
2023/09/15 03:24:42;;;;;;;4.07;3.55;;;13.90;79.40;;;;;;5053430;28;20028;-76
2023/09/15 03:27:08;;;;;;;3.63;3.17;;;13.90;79.50;;;;;;5053395;28;20055;-77
2023/09/15 03:29:34;;;;;;;6.53;3.30;;;13.90;79.40;;;;;;5053189;28;20021;-77
2023/09/15 03:32:00;;;;;;;4.68;3.67;;;13.90;79.40;;;;;;5035613;28;20045;-76
2023/09/15 03:34:25;;;;;;;4.13;3.38;;;13.90;79.40;;;;;;5035625;28;20025;-77
2023/09/15 03:36:51;;;;;;;3.22;2.92;;;13.90;79.40;;;;;;5035340;28;20032;-77
2023/09/15 03:39:18;;;;;;;5.63;3.40;;;13.90;79.40;;;;;;5051612;28;20163;-76
2023/09/15 03:41:45;;;;;;;3.28;2.97;;;13.90;79.40;;;;;;5035505;28;20439;-76
2023/09/15 03:44:10;;;;;;;5.13;3.35;;;13.90;79.30;;;;;;5051782;28;20082;-76
2023/09/15 03:46:36;;;;;;;4.78;2.83;;;13.90;79.30;;;;;;5052058;28;20025;-77
2023/09/15 03:49:03;;;;;;;6.18;3.25;;;13.80;79.10;;;;;;5035341;28;20059;-76
2023/09/15 03:51:29;;;;;;;4.13;3.22;;;13.90;79.20;;;;;;5034944;28;20482;-75
2023/09/15 03:53:55;;;;;;;4.55;3.22;;;13.90;79.10;;;;;;5051602;28;20132;-75
2023/09/15 03:56:20;;;;;;;3.85;3.08;;;13.80;79.10;;;;;;5018858;28;20075;-75
2023/09/15 03:58:46;;;;;;;6.72;3.10;;;13.80;78.90;;;;;;5051350;28;20391;-76
2023/09/15 04:01:19;;;;;;;3.30;3.05;;;13.80;79.00;;;;;;5034807;28;20029;-76
2023/09/15 04:03:45;;;;;;;3.17;2.90;;;13.90;79.20;;;;;;5051677;28;20033;-77
2023/09/15 04:06:12;;;;;;;5.95;3.20;;;13.80;79.10;;;;;;5051031;28;20048;-77
2023/09/15 04:08:38;;;;;;;5.57;3.20;;;13.80;79.10;;;;;;5051536;28;20029;-77
2023/09/15 04:11:07;;;;;;;5.60;3.63;;;13.80;78.80;;;;;;5050945;28;20083;-77
2023/09/15 04:13:32;;;;;;;5.10;3.33;;;13.70;79.00;;;;;;5051291;28;20549;-77
2023/09/15 04:16:00;;;;;;;6.28;3.40;;;13.70;78.90;;;;;;5051022;28;20059;-78
2023/09/15 04:18:27;;;;;;;4.35;3.67;;;13.70;79.00;;;;;;5051242;28;20390;-77
2023/09/15 04:20:56;;;;;;;6.45;3.80;;;13.70;78.90;;;;;;5051543;28;20025;-78
2023/09/15 04:23:23;;;;;;;4.85;3.63;;;13.70;79.00;;;;;;5051338;28;20378;-77
2023/09/15 04:25:49;;;;;;;4.13;3.50;;;13.70;79.10;;;;;;5051170;28;20025;-76
2023/09/15 04:28:14;;;;;;;4.38;3.65;;;13.70;79.10;;;;;;5051049;28;20593;-76
2023/09/15 04:30:40;;;;;;;6.65;3.80;;;13.70;79.00;;;;;;5051133;28;20025;-77
2023/09/15 04:33:23;;;;;;;;;;;13.70;79.10;;;;;;5131439;27;20444;-76
2023/09/15 04:35:49;;;;;;;4.97;3.55;;;13.70;79.20;;;;;;5130868;28;19908;-75
2023/09/15 04:38:14;;;;;;;4.90;3.47;;;13.60;79.50;;;;;;5130987;28;20027;-77
2023/09/15 04:40:40;;;;;;;3.47;2.92;;;13.70;79.50;;;;;;5131194;28;20031;-77
2023/09/15 04:43:05;;;;;;;4.65;3.45;;;13.70;79.00;;;;;;5131684;28;20054;-77
2023/09/15 04:45:31;;;;;;;5.35;3.47;;;13.70;78.70;;;;;;5131022;28;20498;-76
2023/09/15 04:47:56;;;;;;;3.63;3.33;;;13.60;78.50;;;;;;5130865;28;20090;-77
2023/09/15 04:50:22;;;;;;;4.35;3.50;;;13.60;78.50;;;;;;5130785;28;20101;-75
2023/09/15 04:52:48;;;;;;;4.68;3.42;;;13.60;78.60;;;;;;5130631;27;20035;-77
2023/09/15 04:55:13;;;;;;;4.28;3.20;;;13.50;78.80;;;;;;5112231;28;20383;-77
2023/09/15 04:57:39;;;;;;;6.43;3.70;;;13.50;78.80;;;;;;5130642;28;20128;-76
2023/09/15 05:00:12;;;;;;;4.95;3.53;;;13.50;79.00;;;;;;5130683;28;20383;-77
2023/09/15 05:02:38;;;;;;;5.88;3.78;;;13.40;79.10;;;;;;5130372;28;20423;-77
2023/09/15 05:05:04;;;;;;;7.07;3.95;;;13.40;79.30;;;;;;5130602;27;20020;-77
2023/09/15 05:07:29;;;;;;;4.85;3.90;;;13.40;79.40;;;;;;5130796;28;20030;-76
2023/09/15 05:09:55;;;;;;;5.45;4.13;;;13.30;79.50;;;;;;5135472;28;20468;-76
2023/09/15 05:12:20;;;;;;;5.85;3.67;;;13.30;79.60;;;;;;5130384;28;20063;-75
2023/09/15 05:14:46;;;;;;;3.80;3.25;;;13.30;80.00;;;;;;5130479;28;20055;-79
2023/09/15 05:17:11;;;;;;;4.53;4.10;;;13.30;80.10;;;;;;5130295;28;20102;-75
2023/09/15 05:19:37;;;;;;;4.47;4.07;;;13.30;80.30;;;;;;5130308;28;20455;-76
2023/09/15 05:22:03;;;;;;;4.97;4.22;;;13.30;80.30;;;;;;5129951;28;20016;-76
2023/09/15 05:24:29;;;;;;;8.13;4.03;;;13.40;80.20;;;;;;5129849;28;20037;-75
2023/09/15 05:26:54;;;;;;;4.93;4.43;;;13.40;80.10;;;;;;5129504;28;20015;-75
2023/09/15 05:29:20;;;;;;;5.63;4.47;;;13.50;80.20;;;;;;5129624;28;20031;-75
2023/09/15 05:31:45;;;;;;;4.88;4.20;;;13.50;80.50;;;;;;5129492;28;20633;-74
2023/09/15 05:34:11;;;;;;;4.53;4.13;;;13.50;80.60;;;;;;5129634;28;20536;-75
2023/09/15 05:36:36;;;;;;;4.82;4.43;;;13.60;80.50;;;;;;5129552;28;20490;-75
2023/09/15 05:39:02;;;;;;;5.78;4.60;;;13.60;80.30;;;;;;5129163;28;20080;-75
2023/09/15 05:41:28;;;;;;;6.72;5.07;;;13.70;80.00;;;;;;5129498;28;20023;-74
2023/09/15 05:43:53;;;;;;;7.15;5.15;;;13.70;79.70;;;;;;5120805;28;20079;-74
2023/09/15 05:46:19;;;;;;;8.77;5.22;;;13.80;79.40;;;;;;5097472;28;20063;-73
2023/09/15 05:48:45;;;;;;;6.18;4.38;;;13.80;79.40;;;;;;5115784;28;20369;-75
2023/09/15 05:51:10;;;;;;;6.10;4.55;;;13.70;79.50;;;;;;5115570;28;20027;-75
2023/09/15 05:53:36;;;;;;;6.85;4.97;;;13.90;79.50;;;;;;5115545;28;20043;-75
2023/09/15 05:56:02;;;;;;;5.88;5.15;;;14.00;79.10;;;;;;5097042;28;20498;-74
2023/09/15 05:58:27;;;;;;;5.57;4.65;;;14.10;78.70;;;;;;5115670;28;20019;-75
2023/09/15 06:00:55;;;;;;;5.68;4.78;;;14.20;78.60;;;;;;5115657;28;20072;-76
2023/09/15 06:03:25;;;;;;;7.10;4.38;;;14.20;78.30;;;;;;5116030;28;20024;-73
2023/09/15 06:05:51;;;;;;;11.73;5.03;;;14.30;78.30;;;;;;5115660;28;20019;-74
2023/09/15 06:08:19;;;;;;;7.38;4.85;;;14.40;78.10;;;;;;5115359;28;20027;-77
2023/09/15 06:10:47;;;;;;;5.65;5.10;;;14.50;78.00;;;;;;5115704;28;20094;-76
2023/09/15 06:13:14;;;;;;;6.15;4.88;;;14.70;77.80;;;;;;5115489;28;20499;-74
2023/09/15 06:15:39;;;;;;;6.18;5.00;;;14.70;77.40;;;;;;5115754;28;20019;-74
2023/09/15 06:18:05;;;;;;;7.22;4.68;;;14.80;77.00;;;;;;5115245;28;20467;-75
2023/09/15 06:20:31;;;;;;;5.07;4.57;;;14.80;76.90;;;;;;5097163;28;20019;-75
2023/09/15 06:22:57;;;;;;;5.22;4.50;;;14.90;77.10;;;;;;5096992;28;20019;-75
2023/09/15 06:25:23;;;;;;;9.35;4.80;;;14.90;77.20;;;;;;5097228;28;20055;-74
2023/09/15 06:27:49;;;;;;;5.93;4.97;;;15.00;77.10;;;;;;5097408;28;20055;-73
2023/09/15 06:30:15;;;;;;;6.10;4.95;;;15.10;77.00;;;;;;5119475;28;20019;-74
2023/09/15 06:32:40;;;;;;;5.25;4.75;;;15.20;77.10;;;;;;5096482;28;20044;-74
2023/09/15 06:35:07;;;;;;;7.53;4.45;;;15.20;77.10;;;;;;5097105;28;20114;-74
2023/09/15 06:37:34;;;;;;;8.73;5.30;;;15.30;76.90;;;;;;5080098;28;20032;-73
2023/09/15 06:40:00;;;;;;;9.23;5.57;;;15.50;76.60;;;;;;5096327;28;20555;-75
2023/09/15 06:42:26;;;;;;;8.55;5.22;;;15.60;75.90;;;;;;5096578;28;20131;-75
2023/09/15 06:44:52;;;;;;;7.07;5.20;;;15.80;77.40;;;;;;5114884;28;20022;-75
2023/09/15 06:47:17;;;;;;;5.60;4.47;;;16.10;75.30;;;;;;5114619;28;20106;-74
2023/09/15 06:49:43;;;;;;;7.72;5.38;;;16.40;73.90;;;;;;5114641;28;20472;-74
2023/09/15 06:52:08;;;;;;;6.93;5.68;;;16.60;72.70;;;;;;5114599;28;20039;-73
2023/09/15 06:54:34;;;;;;;7.80;4.95;;;16.70;71.70;;;;;;5095527;28;20030;-74
2023/09/15 06:56:59;;;;;;;6.47;5.43;;;16.90;71.30;;;;;;5114015;28;20078;-75
2023/09/15 06:59:25;;;;;;;5.80;5.18;;;16.90;70.50;;;;;;5114673;28;20076;-73
2023/09/15 07:01:50;;;;;;;6.18;5.32;;;17.00;70.30;;;;;;5096434;28;20100;-73
2023/09/15 07:04:17;;;;;;;8.52;5.40;;;17.10;69.80;;;;;;5096384;28;20023;-74
2023/09/15 07:06:42;;;;;;;8.60;5.93;;;17.20;69.50;;;;;;5114312;28;20116;-73
2023/09/15 07:09:08;;;;;;;7.88;5.05;;;17.30;69.20;;;;;;5114273;28;20023;-75
2023/09/15 07:11:33;;;;;;;6.65;5.47;;;17.50;68.50;;;;;;5114307;28;20114;-74
2023/09/15 07:13:59;;;;;;;8.95;5.22;;;17.50;68.10;;;;;;5114176;28;20027;-73
2023/09/15 07:16:25;;;;;;;7.78;5.28;;;17.60;67.60;;;;;;5095929;28;20085;-72
2023/09/15 07:18:50;;;;;;;7.75;5.60;;;17.60;67.50;;;;;;5114098;28;20016;-72
2023/09/15 07:21:16;;;;;;;7.93;6.00;;;17.60;67.50;;;;;;5114391;28;20425;-74
2023/09/15 07:23:41;;;;;;;9.80;6.15;;;17.50;67.30;;;;;;5114067;28;20050;-73
2023/09/15 07:26:07;;;;;;;7.97;6.07;;;17.50;67.60;;;;;;5096007;28;20027;-71
2023/09/15 07:28:32;;;;;;;9.93;6.25;;;17.50;67.70;;;;;;5114062;28;20024;-73
2023/09/15 07:31:06;;;;;;;8.95;6.72;;;17.50;67.80;;;;;;5113887;28;20019;-73
2023/09/15 07:33:32;;;;;;;8.70;5.95;;;17.50;68.10;;;;;;5114008;28;20028;-74
2023/09/15 07:35:59;;;;;;;9.48;6.38;;;17.50;68.50;;;;;;5114047;28;20020;-75
2023/09/15 07:38:25;;;;;;;10.45;6.78;;;17.50;68.50;;;;;;5113989;28;20023;-75
2023/09/15 07:40:50;;;;;;;7.63;6.55;;;17.60;68.40;;;;;;5114277;28;20028;-74
2023/09/15 07:43:16;;;;;;;9.52;5.95;;;17.70;68.80;;;;;;5113471;28;20504;-75
2023/09/15 07:45:41;;;;;;;6.57;5.75;;;17.90;68.60;;;;;;5096478;28;20015;-74
2023/09/15 07:48:07;;;;;;;9.23;6.50;;;18.00;68.20;;;;;;5116099;28;20031;-74
2023/09/15 07:50:33;;;;;;;6.32;5.30;;;18.20;68.10;;;;;;5113656;28;20023;-74
2023/09/15 07:52:59;;;;;;;7.78;6.03;;;18.30;67.90;;;;;;5095391;28;20063;-74
2023/09/15 07:55:25;;;;;;;9.70;6.93;;;18.50;67.80;;;;;;5095258;28;20051;-72
2023/09/15 07:57:50;;;;;;;9.13;6.85;;;18.60;66.80;;;;;;5095509;28;20023;-73
2023/09/15 08:00:16;;;;;;;8.30;6.25;;;18.60;67.60;;;;;;5095495;28;20115;-73
2023/09/15 08:02:42;;;;;;;5.88;5.28;;;18.40;67.60;;;;;;5113129;28;20088;-73
2023/09/15 08:05:08;;;;;;;9.32;5.65;;;18.50;67.80;;;;;;5113478;28;20023;-73
2023/09/15 08:07:33;;;;;;;7.20;6.43;;;18.70;67.60;;;;;;5113265;28;20123;-73
2023/09/15 08:10:00;;;;;;;11.10;7.68;;;18.90;67.40;;;;;;5113207;28;20360;-73
2023/09/15 08:12:27;;;;;;;8.32;7.22;;;18.90;67.60;;;;;;5113095;28;20035;-73
2023/09/15 08:14:52;;;;;;;10.05;8.25;;;19.00;67.40;;;;;;5113137;28;20076;-73
2023/09/15 08:17:18;;;;;;;8.95;7.45;;;18.90;67.70;;;;;;5091201;28;20035;-74
2023/09/15 08:19:43;;;;;;;10.75;7.88;;;19.00;67.00;;;;;;5101715;28;20069;-73
2023/09/15 08:22:09;;;;;;;10.15;8.30;;;18.70;68.10;;;;;;5088301;28;20086;-74
2023/09/15 08:24:37;;;;;;;12.10;8.43;;;18.60;69.90;;;;;;5101343;28;20486;-72
2023/09/15 08:27:03;;;;;;;9.02;6.75;;;18.60;69.40;;;;;;5069660;28;20143;-73
2023/09/15 08:29:29;;;;;;;8.23;6.70;;;18.70;69.10;;;;;;5078304;28;20024;-72
2023/09/15 08:31:55;;;;;;;10.57;8.15;;;18.80;68.90;;;;;;5074327;28;20040;-74
2023/09/15 08:34:20;;;;;;;10.15;8.43;;;19.00;68.40;;;;;;5101813;28;20152;-73
2023/09/15 08:36:46;;;;;;;12.38;9.07;;;19.20;67.60;;;;;;5102652;28;20042;-74
2023/09/15 08:39:12;;;;;;;9.80;8.18;;;19.00;68.10;;;;;;5101305;28;20077;-74
2023/09/15 08:41:47;;;;;;;10.45;6.97;;;19.00;68.70;;;;;;5101350;28;20095;-72
2023/09/15 08:44:16;;;;;;;9.70;8.23;;;19.10;68.40;;;;;;5101694;28;20096;-73
2023/09/15 08:46:43;;;;;;;10.77;8.88;;;19.20;67.80;;;;;;5102229;28;20078;-73
2023/09/15 08:49:09;;;;;;;8.38;6.28;;;19.20;69.20;;;;;;5102319;28;20019;-73
2023/09/15 08:51:37;;;;;;;8.90;7.90;;;19.30;68.30;;;;;;5100944;28;20395;-72
2023/09/15 08:54:03;;;;;;;12.02;8.88;;;19.50;67.30;;;;;;5102660;28;20065;-73
2023/09/15 08:56:29;;;;;;;9.82;6.90;;;19.70;68.00;;;;;;5103402;28;20449;-73
2023/09/15 08:58:56;;;;;;;13.15;8.45;;;19.90;66.90;;;;;;5085339;28;20042;-73
2023/09/15 09:01:22;;;;;;;10.88;8.82;;;19.90;66.90;;;;;;5095150;28;20083;-73
2023/09/15 09:03:48;;;;;;;9.55;8.30;;;19.90;66.90;;;;;;5077934;28;20028;-73
2023/09/15 09:06:15;;;;;;;9.23;7.40;;;20.10;66.90;;;;;;5076057;28;20028;-73
2023/09/15 09:08:46;;;;;;;7.60;5.18;;;20.10;67.70;;;;;;5082282;28;20020;-73
2023/09/15 09:11:12;;;;;;;11.63;7.47;;;20.30;65.60;;;;;;5107281;28;20030;-73
2023/09/15 09:13:39;;;;;;;10.10;7.07;;;20.60;65.60;;;;;;5108587;28;20416;-72
2023/09/15 09:16:07;;;;;;;8.85;6.78;;;20.90;64.70;;;;;;5094369;28;20022;-73
2023/09/15 09:18:33;;;;;;;12.45;7.43;;;21.00;64.10;;;;;;5085125;28;20048;-73
2023/09/15 09:20:59;;;;;;;7.20;6.32;;;21.20;63.50;;;;;;5085912;28;20414;-73
2023/09/15 09:23:24;;;;;;;9.32;7.30;;;21.20;63.70;;;;;;5088855;28;20036;-73
2023/09/15 09:25:50;;;;;;;10.65;7.13;;;21.20;64.10;;;;;;5086315;28;20107;-73
2023/09/15 09:28:16;;;;;;;8.82;6.75;;;21.30;64.00;;;;;;5113365;28;20024;-73
2023/09/15 09:30:42;;;;;;;8.98;6.90;;;21.40;63.20;;;;;;5116247;28;20034;-72
2023/09/15 09:33:12;;;;;;;6.88;5.78;;;21.50;62.80;;;;;;5116026;28;20112;-73
2023/09/15 09:35:37;;;;;;;11.25;7.35;;;21.80;61.90;;;;;;5116426;28;20371;-72
2023/09/15 09:38:04;;;;;;;8.68;5.93;;;21.90;61.30;;;;;;5115900;28;20428;-74
2023/09/15 09:40:32;;;;;;;8.27;5.85;;;22.00;61.50;;;;;;5116083;28;20073;-72
2023/09/15 09:42:57;;;;;;;6.40;5.03;;;22.30;61.80;;;;;;5116229;28;20353;-72
2023/09/15 09:45:30;;;;;;;5.95;5.35;;;22.60;59.80;;;;;;5115685;28;20118;-73
2023/09/15 09:48:00;;;;;;;7.50;5.80;;;22.90;59.70;;;;;;5115978;28;20016;-74
2023/09/15 09:50:26;;;;;;;5.80;4.30;;;23.10;58.70;;;;;;5115262;28;20027;-74
2023/09/15 09:52:53;;;;;;;8.18;7.07;;;23.40;57.80;;;;;;5115743;28;20383;-74
2023/09/15 09:55:19;;;;;;;8.82;5.35;;;23.40;56.50;;;;;;5115873;28;20027;-73
2023/09/15 09:57:45;;;;;;;11.25;6.85;;;23.50;57.00;;;;;;5115918;28;20106;-73
2023/09/15 10:00:13;;;;;;;5.70;4.78;;;23.50;56.30;;;;;;5097457;28;20097;-73
2023/09/15 10:02:42;;;;;;;5.82;5.18;;;23.60;56.90;;;;;;5097807;28;20031;-74
2023/09/15 10:05:08;;;;;;;9.48;5.65;;;23.80;57.30;;;;;;5115513;28;20019;-73
2023/09/15 10:07:34;;;;;;;5.70;5.00;;;24.00;57.40;;;;;;5097035;28;20031;-74
2023/09/15 10:10:06;;;;;;;7.88;5.20;;;24.30;56.60;;;;;;5097310;28;20020;-74
2023/09/15 10:12:32;;;;;;;4.55;4.10;;;24.40;55.30;;;;;;5097276;28;20036;-74
2023/09/15 10:14:59;;;;;;;7.72;4.85;;;24.60;54.60;;;;;;5097063;28;20115;-74
2023/09/15 10:17:27;;;;;;;8.18;5.47;;;24.80;53.60;;;;;;5102997;28;20024;-73
2023/09/15 10:19:53;;;;;;;7.68;5.30;;;24.90;54.10;;;;;;5115522;28;20475;-71
2023/09/15 10:22:20;;;;;;;6.25;5.60;;;24.70;54.50;;;;;;5104715;28;20035;-72
2023/09/15 10:24:53;;;;;;;6.22;4.25;;;24.80;53.20;;;;;;5104132;28;20060;-72
2023/09/15 10:27:19;;;;;;;6.22;5.40;;;25.00;52.90;;;;;;5086690;28;20028;-73
2023/09/15 10:29:45;;;;;;;7.13;5.97;;;25.30;52.40;;;;;;5086025;28;20026;-73
2023/09/15 10:32:18;;;;;;;7.15;5.57;;;25.50;51.60;;;;;;5087197;28;20039;-73
2023/09/15 10:34:47;;;;;;;8.85;5.55;;;25.70;51.30;;;;;;5105442;28;20024;-73
2023/09/15 10:37:13;;;;;;;6.97;5.35;;;26.00;50.30;;;;;;5085879;28;20051;-72
2023/09/15 10:39:41;;;;;;;5.43;4.68;;;25.90;49.20;;;;;;5086897;28;20076;-71
2023/09/15 10:42:08;;;;;;;7.82;5.13;;;26.10;50.10;;;;;;5104998;28;20425;-72
2023/09/15 10:44:35;;;;;;;8.95;5.05;;;26.30;49.50;;;;;;5105562;28;20011;-73
2023/09/15 10:47:00;;;;;;;6.68;4.82;;;26.50;49.20;;;;;;5106846;28;20440;-73
2023/09/15 10:49:26;;;;;;;7.15;4.47;;;26.70;47.90;;;;;;5114225;28;20042;-73
2023/09/15 10:52:00;;;;;;;5.22;4.03;;;26.70;48.00;;;;;;5111406;28;20042;-74
2023/09/15 10:54:33;;;;;;;4.95;4.10;;;26.90;47.50;;;;;;5103762;28;20430;-74
2023/09/15 10:57:00;;;;;;;6.15;5.03;;;27.20;48.00;;;;;;5102688;28;20017;-75
2023/09/15 10:59:26;;;;;;;5.05;4.40;;;27.10;46.90;;;;;;5103524;28;20102;-75
2023/09/15 11:01:52;;;;;;;5.93;4.43;;;27.20;46.50;;;;;;5107394;28;20015;-74
2023/09/15 11:04:21;;;;;;;5.25;4.15;;;27.40;46.50;;;;;;5114052;28;20036;-75
2023/09/15 11:06:49;;;;;;;5.32;4.43;;;27.70;45.40;;;;;;5114465;28;20114;-73
2023/09/15 11:09:15;;;;;;;4.65;4.15;;;27.90;44.90;;;;;;5095859;28;20137;-72
2023/09/15 11:11:45;;;;;;;4.93;4.30;;;28.00;44.70;;;;;;5113896;28;20032;-75
2023/09/15 11:14:13;;;;;;;4.15;3.72;;;28.10;44.80;;;;;;5114319;28;20468;-75
2023/09/15 11:16:44;;;;;;;4.75;4.22;;;28.10;44.40;;;;;;5114146;28;20020;-74
2023/09/15 11:19:11;;;;;;;7.53;4.40;;;28.10;44.80;;;;;;5095952;28;20024;-73
2023/09/15 11:21:38;;;;;;;4.43;3.88;;;28.00;44.70;;;;;;5114418;28;20103;-75
2023/09/15 11:24:04;;;;;;;4.63;3.75;;;28.10;44.90;;;;;;5115172;28;20023;-74
2023/09/15 11:26:29;;;;;;;5.40;3.95;;;28.30;44.90;;;;;;5096247;28;20047;-73
2023/09/15 11:28:55;;;;;;;4.88;4.28;;;28.50;44.10;;;;;;5114056;28;20073;-75
2023/09/15 11:31:21;;;;;;;4.40;4.00;;;28.60;42.30;;;;;;5113694;28;20066;-76
2023/09/15 11:33:47;;;;;;;5.65;4.20;;;28.60;41.90;;;;;;5113933;28;20024;-75
2023/09/15 11:36:15;;;;;;;4.15;3.75;;;28.50;42.80;;;;;;5118323;28;20034;-76
2023/09/15 11:38:42;;;;;;;4.22;3.67;;;28.60;43.00;;;;;;5113991;28;20032;-77
2023/09/15 11:41:07;;;;;;;5.10;4.15;;;28.80;42.10;;;;;;5113261;28;20364;-76
2023/09/15 11:43:33;;;;;;;5.70;4.18;;;29.00;41.90;;;;;;5112872;28;20038;-77
2023/09/15 11:46:00;;;;;;;4.63;4.22;;;28.90;41.10;;;;;;5095044;28;20028;-78
2023/09/15 11:48:26;;;;;;;4.35;3.35;;;29.00;43.00;;;;;;5113527;28;20015;-76
2023/09/15 11:50:53;;;;;;;7.15;3.75;;;29.10;42.30;;;;;;5113740;28;20020;-77
2023/09/15 11:53:24;;;;;;;4.53;3.70;;;29.40;41.30;;;;;;5113379;28;20417;-76
2023/09/15 11:55:53;;;;;;;7.03;3.97;;;29.60;40.30;;;;;;5113711;28;20065;-78
2023/09/15 11:58:19;;;;;;;4.40;3.70;;;29.80;39.30;;;;;;5113497;28;20020;-77
2023/09/15 12:00:45;;;;;;;3.55;3.22;;;30.00;38.30;;;;;;5113552;28;20020;-77
2023/09/15 12:03:11;;;;;;;4.03;3.63;;;29.90;38.50;;;;;;5095261;28;20395;-77
2023/09/15 12:05:36;;;;;;;6.45;3.38;;;29.90;38.60;;;;;;5113291;28;20023;-77
2023/09/15 12:08:02;;;;;;;3.88;3.50;;;30.00;38.40;;;;;;5108487;28;20409;-77
2023/09/15 12:10:28;;;;;;;5.30;3.65;;;30.20;38.30;;;;;;5102921;28;20016;-77
2023/09/15 12:12:58;;;;;;;6.35;3.95;;;30.40;38.20;;;;;;5103955;28;20018;-77
2023/09/15 12:15:26;;;;;;;6.78;3.38;;;30.40;37.80;;;;;;5102735;28;20107;-77
2023/09/15 12:17:52;;;;;;;3.80;3.30;;;30.40;37.70;;;;;;5101429;28;20423;-76
2023/09/15 12:20:22;;;;;;;5.78;4.03;;;30.50;37.60;;;;;;5101491;28;20107;-76
2023/09/15 12:22:48;;;;;;;3.67;3.30;;;30.50;37.40;;;;;;5104551;28;20031;-77
2023/09/15 12:25:15;;;;;;;8.40;3.90;;;30.60;37.20;;;;;;5101532;28;20031;-77
2023/09/15 12:27:41;;;;;;;8.00;4.00;;;30.70;36.60;;;;;;5082353;28;20162;-78
2023/09/15 12:30:11;;;;;;;4.03;3.63;;;30.70;36.60;;;;;;5102468;28;20133;-79
2023/09/15 12:32:38;;;;;;;5.70;3.55;;;30.90;36.50;;;;;;5100180;28;20578;-77
2023/09/15 12:35:14;;;;;;;5.53;3.72;;;30.90;36.70;;;;;;5074605;28;20372;-76
2023/09/15 12:37:44;;;;;;;4.18;3.78;;;31.00;37.20;;;;;;5073746;28;20032;-76
2023/09/15 12:40:11;;;;;;;3.80;3.50;;;31.10;38.20;;;;;;5074444;28;20091;-77
2023/09/15 12:42:37;;;;;;;4.20;3.75;;;31.20;37.00;;;;;;5074833;28;20042;-77
2023/09/15 12:45:05;;;;;;;4.00;3.60;;;31.10;35.60;;;;;;5075869;28;20059;-76